sensor_id;sensor_type;location;lat;lon;timestamp;noise_LAeq;noise_LA_min;noise_LA_max;noise_LA01;noise_LA95
76339;Laerm;26644;50.248;19.032;2023-04-29T00:00:00;47.88;42.75;61.39;;
76339;Laerm;26644;50.248;19.032;2023-04-29T00:03:15;49.01;43.65;55.35;;
76339;Laerm;26644;50.248;19.032;2023-04-29T00:06:21;48.67;43.19;57.64;;
76339;Laerm;26644;50.248;19.032;2023-04-29T00:09:25;48.01;43.19;53.71;;
76339;Laerm;26644;50.248;19.032;2023-04-29T00:12:31;48.01;43.79;54.86;;
76339;Laerm;26644;50.248;19.032;2023-04-29T00:15:35;47.84;44.14;53.30;;
76339;Laerm;26644;50.248;19.032;2023-04-29T00:18:43;47.01;43.14;53.18;;
76339;Laerm;26644;50.248;19.032;2023-04-29T00:21:47;46.81;42.81;52.73;;
76339;Laerm;26644;50.248;19.032;2023-04-29T00:24:53;47.85;44.36;53.22;;
76339;Laerm;26644;50.248;19.032;2023-04-29T00:27:57;47.94;44.31;54.06;;
76339;Laerm;26644;50.248;19.032;2023-04-29T00:31:03;46.60;42.38;52.65;;
76339;Laerm;26644;50.248;19.032;2023-04-29T00:34:10;48.18;43.81;51.80;;
76339;Laerm;26644;50.248;19.032;2023-04-29T00:37:16;49.19;44.76;56.53;;
76339;Laerm;26644;50.248;19.032;2023-04-29T00:40:20;48.02;43.76;56.13;;
76339;Laerm;26644;50.248;19.032;2023-04-29T00:43:26;48.69;45.10;52.59;;
76339;Laerm;26644;50.248;19.032;2023-04-29T00:46:30;49.44;45.04;63.12;;
76339;Laerm;26644;50.248;19.032;2023-04-29T00:49:39;50.30;44.76;62.38;;
76339;Laerm;26644;50.248;19.032;2023-04-29T00:52:44;47.78;42.74;53.42;;
76339;Laerm;26644;50.248;19.032;2023-04-29T00:55:50;48.26;43.62;54.20;;
76339;Laerm;26644;50.248;19.032;2023-04-29T00:58:57;46.72;42.85;50.92;;
76339;Laerm;26644;50.248;19.032;2023-04-29T01:02:04;46.50;42.70;58.07;;
76339;Laerm;26644;50.248;19.032;2023-04-29T01:05:11;46.76;42.86;50.45;;
76339;Laerm;26644;50.248;19.032;2023-04-29T01:08:36;46.35;42.16;49.82;;
76339;Laerm;26644;50.248;19.032;2023-04-29T01:12:07;47.05;42.17;53.11;;
76339;Laerm;26644;50.248;19.032;2023-04-29T01:15:22;47.33;43.53;51.15;;
76339;Laerm;26644;50.248;19.032;2023-04-29T01:18:35;47.23;44.09;51.50;;
76339;Laerm;26644;50.248;19.032;2023-04-29T01:21:48;48.74;44.26;61.62;;
76339;Laerm;26644;50.248;19.032;2023-04-29T01:24:56;47.31;43.32;54.90;;
76339;Laerm;26644;50.248;19.032;2023-04-29T01:28:15;46.52;42.51;51.39;;
76339;Laerm;26644;50.248;19.032;2023-04-29T01:31:37;47.12;43.57;50.28;;
76339;Laerm;26644;50.248;19.032;2023-04-29T01:34:58;48.19;45.00;54.44;;
76339;Laerm;26644;50.248;19.032;2023-04-29T01:38:23;48.30;43.74;61.74;;
76339;Laerm;26644;50.248;19.032;2023-04-29T01:41:42;48.49;44.18;53.74;;
76339;Laerm;26644;50.248;19.032;2023-04-29T01:45:00;47.74;43.74;52.85;;
76339;Laerm;26644;50.248;19.032;2023-04-29T01:48:09;48.81;43.48;54.10;;
76339;Laerm;26644;50.248;19.032;2023-04-29T01:51:16;49.58;46.13;54.12;;
76339;Laerm;26644;50.248;19.032;2023-04-29T01:54:21;49.58;44.96;54.47;;
76339;Laerm;26644;50.248;19.032;2023-04-29T01:57:29;48.41;44.17;52.46;;
76339;Laerm;26644;50.248;19.032;2023-04-29T02:00:52;48.26;43.39;55.55;;
76339;Laerm;26644;50.248;19.032;2023-04-29T02:04:00;48.04;44.13;52.16;;
76339;Laerm;26644;50.248;19.032;2023-04-29T02:07:04;47.67;42.16;52.20;;
76339;Laerm;26644;50.248;19.032;2023-04-29T02:10:10;48.04;42.19;54.45;;
76339;Laerm;26644;50.248;19.032;2023-04-29T02:13:19;50.54;44.47;58.47;;
76339;Laerm;26644;50.248;19.032;2023-04-29T02:16:25;51.44;45.48;62.29;;
76339;Laerm;26644;50.248;19.032;2023-04-29T02:19:38;49.31;45.07;64.92;;
76339;Laerm;26644;50.248;19.032;2023-04-29T02:22:43;49.99;44.18;61.54;;
76339;Laerm;26644;50.248;19.032;2023-04-29T02:25:48;49.03;45.60;53.85;;
76339;Laerm;26644;50.248;19.032;2023-04-29T02:28:55;48.99;44.93;54.26;;
76339;Laerm;26644;50.248;19.032;2023-04-29T02:32:01;49.48;45.33;60.39;;
76339;Laerm;26644;50.248;19.032;2023-04-29T02:35:08;49.71;45.50;54.54;;
76339;Laerm;26644;50.248;19.032;2023-04-29T02:38:13;49.42;44.98;54.57;;
76339;Laerm;26644;50.248;19.032;2023-04-29T02:41:18;50.11;46.56;57.14;;
76339;Laerm;26644;50.248;19.032;2023-04-29T02:44:25;49.50;45.80;55.69;;
76339;Laerm;26644;50.248;19.032;2023-04-29T02:47:32;49.26;45.05;53.13;;
76339;Laerm;26644;50.248;19.032;2023-04-29T02:50:36;49.03;45.66;53.73;;
76339;Laerm;26644;50.248;19.032;2023-04-29T02:53:42;51.56;45.99;59.98;;
76339;Laerm;26644;50.248;19.032;2023-04-29T02:56:46;49.17;44.59;53.31;;
76339;Laerm;26644;50.248;19.032;2023-04-29T02:59:54;50.46;45.22;56.50;;
76339;Laerm;26644;50.248;19.032;2023-04-29T03:02:59;49.66;45.83;58.72;;
76339;Laerm;26644;50.248;19.032;2023-04-29T03:06:04;49.33;45.85;53.86;;
76339;Laerm;26644;50.248;19.032;2023-04-29T03:09:09;49.53;45.24;54.16;;
76339;Laerm;26644;50.248;19.032;2023-04-29T03:12:14;50.63;46.64;54.42;;
76339;Laerm;26644;50.248;19.032;2023-04-29T03:15:23;50.54;46.94;54.83;;
76339;Laerm;26644;50.248;19.032;2023-04-29T03:18:28;51.57;47.94;57.24;;
76339;Laerm;26644;50.248;19.032;2023-04-29T03:21:33;51.36;48.25;58.99;;
76339;Laerm;26644;50.248;19.032;2023-04-29T03:24:38;50.81;47.14;53.57;;
76339;Laerm;26644;50.248;19.032;2023-04-29T03:27:43;51.63;48.09;56.87;;
76339;Laerm;26644;50.248;19.032;2023-04-29T03:30:51;51.41;47.93;54.20;;
76339;Laerm;26644;50.248;19.032;2023-04-29T03:33:57;50.93;46.20;55.60;;
76339;Laerm;26644;50.248;19.032;2023-04-29T03:37:02;51.37;47.85;56.08;;
76339;Laerm;26644;50.248;19.032;2023-04-29T03:40:08;50.26;46.24;58.27;;
76339;Laerm;26644;50.248;19.032;2023-04-29T03:43:14;50.53;46.91;59.46;;
76339;Laerm;26644;50.248;19.032;2023-04-29T03:46:21;50.58;46.48;56.37;;
76339;Laerm;26644;50.248;19.032;2023-04-29T03:49:27;50.65;47.16;54.58;;
76339;Laerm;26644;50.248;19.032;2023-04-29T03:52:31;50.22;46.31;57.18;;
76339;Laerm;26644;50.248;19.032;2023-04-29T03:55:41;51.82;48.42;57.34;;
76339;Laerm;26644;50.248;19.032;2023-04-29T03:58:45;52.34;48.10;60.09;;
76339;Laerm;26644;50.248;19.032;2023-04-29T04:01:53;51.50;47.90;55.21;;
76339;Laerm;26644;50.248;19.032;2023-04-29T04:04:59;51.35;47.79;60.31;;
76339;Laerm;26644;50.248;19.032;2023-04-29T04:08:04;51.14;48.04;58.17;;
76339;Laerm;26644;50.248;19.032;2023-04-29T04:11:27;51.78;47.60;60.93;;
76339;Laerm;26644;50.248;19.032;2023-04-29T04:14:36;51.72;47.53;58.06;;
76339;Laerm;26644;50.248;19.032;2023-04-29T04:17:43;51.92;48.31;60.08;;
76339;Laerm;26644;50.248;19.032;2023-04-29T04:20:48;51.75;48.19;55.04;;
76339;Laerm;26644;50.248;19.032;2023-04-29T04:23:53;52.25;48.54;61.91;;
76339;Laerm;26644;50.248;19.032;2023-04-29T04:26:59;51.95;48.39;65.70;;
76339;Laerm;26644;50.248;19.032;2023-04-29T04:30:11;53.19;48.32;63.34;;
76339;Laerm;26644;50.248;19.032;2023-04-29T04:33:19;51.86;48.15;61.47;;
76339;Laerm;26644;50.248;19.032;2023-04-29T04:36:23;52.50;49.03;58.40;;
76339;Laerm;26644;50.248;19.032;2023-04-29T04:39:30;52.19;49.18;61.04;;
76339;Laerm;26644;50.248;19.032;2023-04-29T04:42:35;52.20;48.65;56.30;;
76339;Laerm;26644;50.248;19.032;2023-04-29T04:45:49;52.38;48.67;56.48;;
76339;Laerm;26644;50.248;19.032;2023-04-29T04:48:56;52.41;47.65;62.61;;
76339;Laerm;26644;50.248;19.032;2023-04-29T04:52:03;56.62;51.81;73.45;;
76339;Laerm;26644;50.248;19.032;2023-04-29T04:55:09;54.25;51.23;63.28;;
76339;Laerm;26644;50.248;19.032;2023-04-29T04:58:19;54.50;50.97;65.88;;
76339;Laerm;26644;50.248;19.032;2023-04-29T05:01:23;55.65;51.06;70.30;;
76339;Laerm;26644;50.248;19.032;2023-04-29T05:04:31;54.91;51.51;66.25;;
76339;Laerm;26644;50.248;19.032;2023-04-29T05:07:36;54.12;51.00;65.92;;
76339;Laerm;26644;50.248;19.032;2023-04-29T05:10:41;55.78;50.31;70.82;;
76339;Laerm;26644;50.248;19.032;2023-04-29T05:13:46;54.25;49.81;69.68;;
76339;Laerm;26644;50.248;19.032;2023-04-29T05:16:52;52.62;49.16;57.59;;
76339;Laerm;26644;50.248;19.032;2023-04-29T05:19:59;53.40;50.11;58.75;;
76339;Laerm;26644;50.248;19.032;2023-04-29T05:23:06;53.66;49.78;64.57;;
76339;Laerm;26644;50.248;19.032;2023-04-29T05:26:14;53.15;49.77;59.97;;
76339;Laerm;26644;50.248;19.032;2023-04-29T05:29:19;52.56;49.44;64.92;;
76339;Laerm;26644;50.248;19.032;2023-04-29T05:32:29;52.13;49.13;67.09;;
76339;Laerm;26644;50.248;19.032;2023-04-29T05:35:37;54.25;49.52;79.12;;
76339;Laerm;26644;50.248;19.032;2023-04-29T05:38:42;53.37;49.85;63.37;;
76339;Laerm;26644;50.248;19.032;2023-04-29T05:41:47;52.43;48.57;59.61;;
76339;Laerm;26644;50.248;19.032;2023-04-29T05:45:18;52.76;49.03;61.79;;
76339;Laerm;26644;50.248;19.032;2023-04-29T05:48:25;52.57;49.05;63.55;;
76339;Laerm;26644;50.248;19.032;2023-04-29T05:51:32;53.22;48.69;66.39;;
76339;Laerm;26644;50.248;19.032;2023-04-29T05:54:38;53.82;49.69;65.50;;
76339;Laerm;26644;50.248;19.032;2023-04-29T05:57:43;53.09;49.51;61.10;;
76339;Laerm;26644;50.248;19.032;2023-04-29T06:00:48;53.11;49.82;59.09;;
76339;Laerm;26644;50.248;19.032;2023-04-29T06:03:59;53.24;49.33;61.80;;
76339;Laerm;26644;50.248;19.032;2023-04-29T06:07:33;52.91;49.45;62.46;;
76339;Laerm;26644;50.248;19.032;2023-04-29T06:10:46;53.21;49.53;60.34;;
76339;Laerm;26644;50.248;19.032;2023-04-29T06:13:53;52.88;49.50;58.80;;
76339;Laerm;26644;50.248;19.032;2023-04-29T06:16:58;53.09;49.97;61.48;;
76339;Laerm;26644;50.248;19.032;2023-04-29T06:20:05;52.89;49.09;61.89;;
76339;Laerm;26644;50.248;19.032;2023-04-29T06:23:12;53.26;49.56;70.05;;
76339;Laerm;26644;50.248;19.032;2023-04-29T06:26:17;53.05;49.88;61.97;;
76339;Laerm;26644;50.248;19.032;2023-04-29T06:29:22;53.50;49.87;73.94;;
76339;Laerm;26644;50.248;19.032;2023-04-29T06:32:28;55.92;49.78;86.00;;
76339;Laerm;26644;50.248;19.032;2023-04-29T06:35:32;52.95;50.01;70.85;;
76339;Laerm;26644;50.248;19.032;2023-04-29T06:38:51;52.90;50.05;60.85;;
76339;Laerm;26644;50.248;19.032;2023-04-29T06:42:24;53.60;49.53;64.78;;
76339;Laerm;26644;50.248;19.032;2023-04-29T06:45:48;53.64;50.37;60.53;;
76339;Laerm;26644;50.248;19.032;2023-04-29T06:48:57;53.71;50.24;62.87;;
76339;Laerm;26644;50.248;19.032;2023-04-29T06:52:03;53.41;50.06;63.48;;
76339;Laerm;26644;50.248;19.032;2023-04-29T06:55:10;53.78;50.15;63.62;;
76339;Laerm;26644;50.248;19.032;2023-04-29T06:58:18;53.39;50.24;58.27;;
76339;Laerm;26644;50.248;19.032;2023-04-29T07:01:23;53.28;49.61;62.58;;
76339;Laerm;26644;50.248;19.032;2023-04-29T07:04:28;53.09;49.64;56.73;;
76339;Laerm;26644;50.248;19.032;2023-04-29T07:07:33;55.81;50.36;67.57;;
76339;Laerm;26644;50.248;19.032;2023-04-29T08:13:10;53.19;49.65;59.11;;
76339;Laerm;26644;50.248;19.032;2023-04-29T08:16:16;53.96;50.95;64.93;;
76339;Laerm;26644;50.248;19.032;2023-04-29T08:19:22;54.82;51.35;63.84;;
76339;Laerm;26644;50.248;19.032;2023-04-29T08:22:27;54.26;51.08;62.04;;
76339;Laerm;26644;50.248;19.032;2023-04-29T08:25:32;53.56;50.09;66.15;;
76339;Laerm;26644;50.248;19.032;2023-04-29T08:28:40;54.61;50.64;67.11;;
76339;Laerm;26644;50.248;19.032;2023-04-29T08:31:45;53.10;48.40;62.24;;
76339;Laerm;26644;50.248;19.032;2023-04-29T08:34:51;54.89;50.71;71.42;;
76339;Laerm;26644;50.248;19.032;2023-04-29T08:37:56;54.84;50.78;63.36;;
76339;Laerm;26644;50.248;19.032;2023-04-29T08:41:01;53.73;50.05;62.92;;
76339;Laerm;26644;50.248;19.032;2023-04-29T08:44:09;54.18;50.01;66.62;;
76339;Laerm;26644;50.248;19.032;2023-04-29T08:47:15;53.31;48.92;62.17;;
76339;Laerm;26644;50.248;19.032;2023-04-29T08:50:20;53.92;50.45;63.26;;
76339;Laerm;26644;50.248;19.032;2023-04-29T08:53:27;53.72;50.58;66.99;;
76339;Laerm;26644;50.248;19.032;2023-04-29T08:56:33;53.94;50.25;64.22;;
76339;Laerm;26644;50.248;19.032;2023-04-29T08:59:41;54.32;50.14;68.64;;
76339;Laerm;26644;50.248;19.032;2023-04-29T09:02:50;53.10;48.98;67.26;;
76339;Laerm;26644;50.248;19.032;2023-04-29T09:06:00;54.14;49.67;69.63;;
76339;Laerm;26644;50.248;19.032;2023-04-29T09:09:07;53.00;49.55;60.13;;
76339;Laerm;26644;50.248;19.032;2023-04-29T09:12:15;53.46;48.69;71.21;;
76339;Laerm;26644;50.248;19.032;2023-04-29T09:15:22;53.11;49.61;65.71;;
76339;Laerm;26644;50.248;19.032;2023-04-29T09:18:46;53.37;49.53;64.11;;
76339;Laerm;26644;50.248;19.032;2023-04-29T09:21:54;56.99;50.07;77.67;;
76339;Laerm;26644;50.248;19.032;2023-04-29T09:25:11;55.45;51.36;66.47;;
76339;Laerm;26644;50.248;19.032;2023-04-29T09:28:16;54.24;49.97;63.73;;
76339;Laerm;26644;50.248;19.032;2023-04-29T09:31:29;54.09;50.09;65.33;;
76339;Laerm;26644;50.248;19.032;2023-04-29T09:34:34;54.42;50.59;64.27;;
76339;Laerm;26644;50.248;19.032;2023-04-29T09:37:42;53.94;49.48;61.72;;
76339;Laerm;26644;50.248;19.032;2023-04-29T09:40:47;55.35;50.79;80.91;;
76339;Laerm;26644;50.248;19.032;2023-04-29T09:44:02;54.27;49.37;64.05;;
76339;Laerm;26644;50.248;19.032;2023-04-29T09:47:10;54.83;51.40;61.32;;
76339;Laerm;26644;50.248;19.032;2023-04-29T09:50:16;53.98;50.56;57.83;;
76339;Laerm;26644;50.248;19.032;2023-04-29T09:53:29;53.73;48.90;63.97;;
76339;Laerm;26644;50.248;19.032;2023-04-29T09:56:49;54.52;51.21;67.79;;
76339;Laerm;26644;50.248;19.032;2023-04-29T09:59:53;53.47;49.39;61.16;;
76339;Laerm;26644;50.248;19.032;2023-04-29T10:03:05;55.59;51.31;73.22;;
76339;Laerm;26644;50.248;19.032;2023-04-29T10:06:11;54.20;51.05;63.71;;
76339;Laerm;26644;50.248;19.032;2023-04-29T10:09:19;53.93;50.94;63.29;;
76339;Laerm;26644;50.248;19.032;2023-04-29T10:12:24;54.43;50.67;63.40;;
76339;Laerm;26644;50.248;19.032;2023-04-29T10:15:38;54.73;50.76;63.42;;
76339;Laerm;26644;50.248;19.032;2023-04-29T10:18:54;53.84;50.39;60.80;;
76339;Laerm;26644;50.248;19.032;2023-04-29T10:22:08;54.52;51.09;61.07;;
76339;Laerm;26644;50.248;19.032;2023-04-29T10:25:19;54.71;49.89;64.87;;
76339;Laerm;26644;50.248;19.032;2023-04-29T10:28:30;54.03;50.41;70.45;;
76339;Laerm;26644;50.248;19.032;2023-04-29T10:31:36;56.23;50.75;84.27;;
76339;Laerm;26644;50.248;19.032;2023-04-29T10:34:47;54.37;50.24;71.71;;
76339;Laerm;26644;50.248;19.032;2023-04-29T10:37:53;54.40;50.81;64.99;;
76339;Laerm;26644;50.248;19.032;2023-04-29T10:41:09;54.96;50.92;67.33;;
76339;Laerm;26644;50.248;19.032;2023-04-29T10:44:17;55.56;50.85;71.17;;
76339;Laerm;26644;50.248;19.032;2023-04-29T10:47:23;53.96;50.60;66.29;;
76339;Laerm;26644;50.248;19.032;2023-04-29T10:50:39;53.76;48.52;64.07;;
76339;Laerm;26644;50.248;19.032;2023-04-29T11:02:04;53.97;50.39;59.80;;
76339;Laerm;26644;50.248;19.032;2023-04-29T11:05:11;54.22;50.98;62.09;;
76339;Laerm;26644;50.248;19.032;2023-04-29T11:08:23;54.61;50.86;60.09;;
76339;Laerm;26644;50.248;19.032;2023-04-29T11:11:44;54.25;49.96;62.84;;
76339;Laerm;26644;50.248;19.032;2023-04-29T11:14:50;53.89;50.92;63.88;;
76339;Laerm;26644;50.248;19.032;2023-04-29T11:18:03;53.91;50.35;60.34;;
76339;Laerm;26644;50.248;19.032;2023-04-29T11:21:14;53.67;49.62;63.80;;
76339;Laerm;26644;50.248;19.032;2023-04-29T11:24:22;54.21;50.10;70.56;;
76339;Laerm;26644;50.248;19.032;2023-04-29T11:27:30;54.09;50.50;61.56;;
76339;Laerm;26644;50.248;19.032;2023-04-29T11:30:37;53.85;50.21;57.38;;
76339;Laerm;26644;50.248;19.032;2023-04-29T11:33:42;53.93;49.88;72.57;;
76339;Laerm;26644;50.248;19.032;2023-04-29T11:36:50;53.40;49.59;58.19;;
76339;Laerm;26644;50.248;19.032;2023-04-29T11:40:05;54.82;50.65;63.37;;
76339;Laerm;26644;50.248;19.032;2023-04-29T11:43:16;55.44;51.70;66.91;;
76339;Laerm;26644;50.248;19.032;2023-04-29T11:46:21;55.53;51.16;65.60;;
76339;Laerm;26644;50.248;19.032;2023-04-29T11:49:29;55.71;50.68;66.83;;
76339;Laerm;26644;50.248;19.032;2023-04-29T11:52:37;55.47;51.69;65.58;;
76339;Laerm;26644;50.248;19.032;2023-04-29T11:55:46;57.28;52.28;71.83;;
76339;Laerm;26644;50.248;19.032;2023-04-29T11:58:53;56.96;51.70;75.32;;
76339;Laerm;26644;50.248;19.032;2023-04-29T12:02:00;56.18;52.15;69.79;;
76339;Laerm;26644;50.248;19.032;2023-04-29T12:05:07;54.82;51.21;60.65;;
76339;Laerm;26644;50.248;19.032;2023-04-29T12:08:14;55.45;50.92;64.83;;
76339;Laerm;26644;50.248;19.032;2023-04-29T12:11:22;55.33;50.91;70.41;;
76339;Laerm;26644;50.248;19.032;2023-04-29T12:14:29;55.98;51.66;76.42;;
76339;Laerm;26644;50.248;19.032;2023-04-29T12:17:35;55.16;50.79;61.85;;
76339;Laerm;26644;50.248;19.032;2023-04-29T12:20:41;55.07;51.38;67.31;;
76339;Laerm;26644;50.248;19.032;2023-04-29T12:23:45;54.28;51.04;63.19;;
76339;Laerm;26644;50.248;19.032;2023-04-29T12:26:54;53.97;50.41;60.97;;
76339;Laerm;26644;50.248;19.032;2023-04-29T12:30:00;54.03;49.81;63.36;;
76339;Laerm;26644;50.248;19.032;2023-04-29T12:33:08;53.59;50.16;57.84;;
76339;Laerm;26644;50.248;19.032;2023-04-29T12:36:16;53.50;49.58;64.90;;
76339;Laerm;26644;50.248;19.032;2023-04-29T12:39:23;55.22;51.07;64.62;;
76339;Laerm;26644;50.248;19.032;2023-04-29T12:42:34;54.68;50.82;62.82;;
76339;Laerm;26644;50.248;19.032;2023-04-29T12:45:39;54.86;50.24;64.34;;
76339;Laerm;26644;50.248;19.032;2023-04-29T12:48:46;53.83;50.96;58.41;;
76339;Laerm;26644;50.248;19.032;2023-04-29T12:51:51;54.69;50.66;61.58;;
76339;Laerm;26644;50.248;19.032;2023-04-29T12:54:56;53.44;49.75;58.02;;
76339;Laerm;26644;50.248;19.032;2023-04-29T12:58:05;54.07;49.81;60.87;;
76339;Laerm;26644;50.248;19.032;2023-04-29T13:01:10;53.12;49.70;67.71;;
76339;Laerm;26644;50.248;19.032;2023-04-29T13:04:15;53.39;49.41;60.28;;
76339;Laerm;26644;50.248;19.032;2023-04-29T13:07:20;54.03;50.06;62.26;;
76339;Laerm;26644;50.248;19.032;2023-04-29T13:10:25;53.74;50.41;65.80;;
76339;Laerm;26644;50.248;19.032;2023-04-29T13:13:34;55.63;50.90;64.47;;
76339;Laerm;26644;50.248;19.032;2023-04-29T13:16:39;55.36;51.10;62.44;;
76339;Laerm;26644;50.248;19.032;2023-04-29T13:19:43;53.76;49.48;61.79;;
76339;Laerm;26644;50.248;19.032;2023-04-29T13:22:49;55.42;51.07;69.68;;
76339;Laerm;26644;50.248;19.032;2023-04-29T13:25:53;54.47;49.88;66.75;;
76339;Laerm;26644;50.248;19.032;2023-04-29T13:29:01;53.65;49.18;71.93;;
76339;Laerm;26644;50.248;19.032;2023-04-29T13:32:05;53.86;49.58;68.38;;
76339;Laerm;26644;50.248;19.032;2023-04-29T13:35:11;53.76;50.14;70.04;;
76339;Laerm;26644;50.248;19.032;2023-04-29T13:38:15;53.23;49.50;57.92;;
76339;Laerm;26644;50.248;19.032;2023-04-29T13:41:20;53.82;49.66;60.29;;
76339;Laerm;26644;50.248;19.032;2023-04-29T13:44:29;52.93;49.41;58.31;;
76339;Laerm;26644;50.248;19.032;2023-04-29T13:47:35;53.92;49.59;67.83;;
76339;Laerm;26644;50.248;19.032;2023-04-29T13:50:39;52.54;48.37;58.12;;
76339;Laerm;26644;50.248;19.032;2023-04-29T13:53:46;53.44;50.52;63.63;;
76339;Laerm;26644;50.248;19.032;2023-04-29T13:56:50;53.15;49.40;63.43;;
76339;Laerm;26644;50.248;19.032;2023-04-29T13:59:58;53.00;48.67;58.71;;
76339;Laerm;26644;50.248;19.032;2023-04-29T14:03:13;54.32;49.68;68.85;;
76339;Laerm;26644;50.248;19.032;2023-04-29T14:06:19;53.46;48.78;66.68;;
76339;Laerm;26644;50.248;19.032;2023-04-29T14:09:24;52.64;48.86;62.96;;
76339;Laerm;26644;50.248;19.032;2023-04-29T14:12:29;54.35;49.18;67.18;;
76339;Laerm;26644;50.248;19.032;2023-04-29T14:15:36;52.32;47.90;62.73;;
76339;Laerm;26644;50.248;19.032;2023-04-29T14:18:42;55.18;49.10;72.47;;
76339;Laerm;26644;50.248;19.032;2023-04-29T14:21:47;54.43;49.18;67.83;;
76339;Laerm;26644;50.248;19.032;2023-04-29T14:24:52;53.78;49.98;63.92;;
76339;Laerm;26644;50.248;19.032;2023-04-29T14:27:57;52.74;49.28;64.70;;
76339;Laerm;26644;50.248;19.032;2023-04-29T14:31:05;53.44;48.69;67.33;;
76339;Laerm;26644;50.248;19.032;2023-04-29T14:34:09;52.55;48.47;61.57;;
76339;Laerm;26644;50.248;19.032;2023-04-29T14:37:14;52.97;49.40;58.60;;
76339;Laerm;26644;50.248;19.032;2023-04-29T14:40:19;52.36;48.78;59.12;;
76339;Laerm;26644;50.248;19.032;2023-04-29T14:43:26;52.11;47.72;59.72;;
76339;Laerm;26644;50.248;19.032;2023-04-29T14:46:33;54.34;48.14;85.55;;
76339;Laerm;26644;50.248;19.032;2023-04-29T14:49:38;52.06;47.88;60.80;;
76339;Laerm;26644;50.248;19.032;2023-04-29T14:52:43;53.00;49.23;64.22;;
76339;Laerm;26644;50.248;19.032;2023-04-29T14:55:48;53.19;48.56;60.71;;
76339;Laerm;26644;50.248;19.032;2023-04-29T14:58:53;53.46;49.34;62.83;;
76339;Laerm;26644;50.248;19.032;2023-04-29T15:02:01;53.15;49.81;67.91;;
76339;Laerm;26644;50.248;19.032;2023-04-29T15:05:06;52.99;49.25;56.96;;
76339;Laerm;26644;50.248;19.032;2023-04-29T15:08:11;53.36;49.74;60.15;;
76339;Laerm;26644;50.248;19.032;2023-04-29T15:11:16;53.91;48.99;65.89;;
76339;Laerm;26644;50.248;19.032;2023-04-29T15:14:21;52.00;48.16;57.70;;
76339;Laerm;26644;50.248;19.032;2023-04-29T15:17:28;52.47;49.43;56.48;;
76339;Laerm;26644;50.248;19.032;2023-04-29T15:20:33;53.47;48.36;69.55;;
76339;Laerm;26644;50.248;19.032;2023-04-29T15:23:38;53.65;49.96;58.30;;
76339;Laerm;26644;50.248;19.032;2023-04-29T15:26:44;53.20;49.33;67.14;;
76339;Laerm;26644;50.248;19.032;2023-04-29T15:29:48;53.24;49.01;61.93;;
76339;Laerm;26644;50.248;19.032;2023-04-29T15:32:57;53.02;48.69;60.57;;
76339;Laerm;26644;50.248;19.032;2023-04-29T15:36:02;52.32;49.12;58.22;;
76339;Laerm;26644;50.248;19.032;2023-04-29T15:39:08;52.60;48.93;55.65;;
76339;Laerm;26644;50.248;19.032;2023-04-29T15:42:13;52.79;48.89;61.54;;
76339;Laerm;26644;50.248;19.032;2023-04-29T15:45:18;53.69;48.54;59.18;;
76339;Laerm;26644;50.248;19.032;2023-04-29T15:48:25;53.47;49.22;61.55;;
76339;Laerm;26644;50.248;19.032;2023-04-29T15:51:30;52.60;49.35;67.47;;
76339;Laerm;26644;50.248;19.032;2023-04-29T15:54:35;52.64;49.36;58.08;;
76339;Laerm;26644;50.248;19.032;2023-04-29T15:57:41;52.95;47.78;61.19;;
76339;Laerm;26644;50.248;19.032;2023-04-29T16:00:45;52.41;48.35;66.96;;
76339;Laerm;26644;50.248;19.032;2023-04-29T16:03:53;52.55;48.52;59.09;;
76339;Laerm;26644;50.248;19.032;2023-04-29T16:06:57;52.14;47.48;64.48;;
76339;Laerm;26644;50.248;19.032;2023-04-29T16:10:07;53.34;49.13;63.89;;
76339;Laerm;26644;50.248;19.032;2023-04-29T16:13:12;53.41;49.02;67.40;;
76339;Laerm;26644;50.248;19.032;2023-04-29T16:16:17;54.04;48.25;61.16;;
76339;Laerm;26644;50.248;19.032;2023-04-29T16:19:24;60.83;55.30;74.33;;
76339;Laerm;26644;50.248;19.032;2023-04-29T16:22:29;58.60;52.98;65.56;;
76339;Laerm;26644;50.248;19.032;2023-04-29T16:25:34;55.54;52.39;64.05;;
76339;Laerm;26644;50.248;19.032;2023-04-29T16:28:39;53.38;50.11;63.45;;
76339;Laerm;26644;50.248;19.032;2023-04-29T16:35:59;52.96;49.12;61.44;;
76339;Laerm;26644;50.248;19.032;2023-04-29T16:39:27;53.60;49.47;59.62;;
76339;Laerm;26644;50.248;19.032;2023-04-29T23:06:35;47.21;42.09;56.08;;
76339;Laerm;26644;50.248;19.032;2023-04-29T23:09:40;47.62;42.33;56.76;;
76339;Laerm;26644;50.248;19.032;2023-04-29T23:12:45;47.68;41.98;57.38;;
76339;Laerm;26644;50.248;19.032;2023-04-29T23:15:50;48.45;42.76;57.72;;
76339;Laerm;26644;50.248;19.032;2023-04-29T23:18:57;48.79;42.59;59.97;;
76339;Laerm;26644;50.248;19.032;2023-04-29T23:22:05;47.45;42.36;60.85;;
76339;Laerm;26644;50.248;19.032;2023-04-29T23:25:10;47.97;43.07;57.39;;
76339;Laerm;26644;50.248;19.032;2023-04-29T23:28:15;47.74;42.09;63.93;;
76339;Laerm;26644;50.248;19.032;2023-04-29T23:31:20;47.59;41.70;57.86;;
76339;Laerm;26644;50.248;19.032;2023-04-29T23:34:25;47.26;42.45;57.78;;
76339;Laerm;26644;50.248;19.032;2023-04-29T23:37:32;48.01;43.68;57.69;;
76339;Laerm;26644;50.248;19.032;2023-04-29T23:40:37;47.67;42.09;57.45;;
76339;Laerm;26644;50.248;19.032;2023-04-29T23:43:42;47.60;43.19;56.39;;
76339;Laerm;26644;50.248;19.032;2023-04-29T23:46:47;46.66;41.14;56.31;;
76339;Laerm;26644;50.248;19.032;2023-04-29T23:49:51;51.61;42.05;68.13;;
76339;Laerm;26644;50.248;19.032;2023-04-29T23:53:05;47.93;42.68;57.46;;
76339;Laerm;26644;50.248;19.032;2023-04-29T23:56:10;47.53;41.53;57.09;;
76339;Laerm;26644;50.248;19.032;2023-04-29T23:59:15;47.19;41.93;56.18;;
